Sunday, March 24, 2019, 7:34 PM EDT
Back to Local

KLCI, Laconia, Laconia Municipal Airport

Location: Laconia, NH, United States Lat: 43.567
Local Time: 7:34 PM EDT (23:34 GMT) Lon: -71.417
Time Zone: US/Eastern Elev: 544 ft

Show me the last for .
Show Decoded

2019-03-24 18:56 METAR KLCI 242256Z AUTO 22003KT 10SM CLR 07/M06 A2989 RMK AO2 SLP139 T00721061 $
                 =
2019-03-24 17:56 METAR KLCI 242156Z AUTO 26006KT 10SM CLR 09/M08 A2988 RMK AO2 SLP140 T00891078 $
                 =
2019-03-24 16:56 METAR KLCI 242056Z AUTO 25007G15KT 10SM CLR 09/M09 A2988 RMK AO2 SLP140
                 T00891089 56010 $ =
2019-03-24 15:56 METAR KLCI 241956Z AUTO 26012KT 10SM CLR 09/M09 A2989 RMK AO2 SLP141 T00891089 $
                 =
2019-03-24 14:56 METAR KLCI 241856Z AUTO 25010G14KT 10SM CLR 10/M08 A2989 RMK AO2 SLP143
                 T01001083 $ =
2019-03-24 13:56 METAR KLCI 241756Z AUTO 25008KT 10SM CLR 09/M07 A2992 RMK AO2 SLP150 T00891067
                 10089 21006 58025 $ =
2019-03-24 12:56 METAR KLCI 241656Z AUTO 23015KT 10SM CLR 07/M07 A2994 RMK AO2 SLP158 T00721067 $
                 =
2019-03-24 11:56 METAR KLCI 241556Z AUTO 25011G17KT 10SM CLR 07/M08 A2997 RMK AO2 SLP169
                 T00671078 $ =
2019-03-24 10:56 METAR KLCI 241456Z AUTO 24007KT 10SM CLR 05/M08 A2999 RMK AO2 SLP175 T00501083
                 58004 $ =
2019-03-24 09:56 METAR KLCI 241356Z AUTO 23009KT 10SM CLR 02/M08 A3000 RMK AO2 SLP179 T00221078
                 FZRANO $ =
2019-03-24 08:56 METAR KLCI 241256Z AUTO 22008KT 10SM CLR 01/M09 A3000 RMK AO2 SLP178 T00061089
                 FZRANO $ =
2019-03-24 07:56 METAR KLCI 241156Z AUTO 24008KT 10SM CLR M01/M08 A3000 RMK AO2 SLP178 T10061083
                 11006 21028 53008 FZRANO $ =
2019-03-24 06:56 METAR KLCI 241056Z AUTO 26008KT 10SM CLR M02/M09 A2999 RMK AO2 SLP175 T10221094
                 FZRANO $ =
2019-03-24 05:56 METAR KLCI 240956Z AUTO 27005KT 10SM CLR M02/M10 A2999 RMK AO2 SLP172 T10171100
                 FZRANO $ =
2019-03-24 04:56 METAR KLCI 240856Z AUTO 24005KT 10SM CLR M02/M10 A2998 RMK AO2 SLP170 T10221100
                 53007 FZRANO $ =
2019-03-24 03:56 METAR KLCI 240756Z AUTO 26006KT 10SM CLR M01/M11 A2996 RMK AO2 SLP164 T10111111
                 FZRANO $ =
2019-03-24 02:56 METAR KLCI 240656Z AUTO 25011KT 10SM CLR M02/M11 A2996 RMK AO2 SLP163 T10171106
                 FZRANO $ =
2019-03-24 01:56 METAR KLCI 240556Z AUTO 25009G17KT 10SM CLR M01/M11 A2996 RMK AO2 SLP163
                 T10111106 10000 21011 53012 FZRANO $ =
2019-03-24 00:56 METAR KLCI 240456Z AUTO 26012G18KT 10SM CLR M01/M11 A2994 RMK AO2 SLP156
                 T10061111 400281011 FZRANO $ =
2019-03-23 23:56 METAR KLCI 240356Z AUTO VRB05KT 10SM CLR M01/M11 A2993 RMK AO2 SLP154 T10061111
                 FZRANO $ =
2019-03-23 22:56 METAR KLCI 240256Z AUTO 26008KT 220V290 10SM CLR M01/M11 A2992 RMK AO2 SLP151
                 T10061111 51022 FZRANO $ =
2019-03-23 21:56 METAR KLCI 240156Z AUTO 26012G21KT 10SM CLR M01/M10 A2991 RMK AO2 SLP145
                 T10061100 FZRANO $ =
2019-03-23 20:56 METAR KLCI 240056Z AUTO 27012G20KT 10SM CLR M01/M09 A2990 RMK AO2 SLP141
                 T10061089 FZRANO $ =
2019-03-23 19:56 METAR KLCI 232356Z AUTO 27007G14KT 230V310 10SM CLR 00/M08 A2985 RMK AO2 SLP127
                 T00001078 10028 20000 51042 FZRANO $ =

Support USWX by starting your Amazon purchase here.